Time;durP1;ratioP1;P1;durP2;ratioP2;P2;SDS_P1;SDS_P2;PMS_P1;PMS_P2;Temp;Humidity;BMP_temperature;BMP_pressure;BME280_temperature;BME280_humidity;BME280_pressure;Samples;Min_cycle;Max_cycle;Signal;HPM_P1;HPM_P2
2020/12/05 00:02:33;;;;;;;35.35;15.20;;;3.90;99.90;;;;;;5001102;28;20045;-66
2020/12/05 00:05:19;;;;;;;42.95;17.52;;;4.00;99.90;;;;;;4999386;28;20042;-66
2020/12/05 00:08:05;;;;;;;34.67;16.30;;;3.90;99.90;;;;;;5014456;28;20092;-66
2020/12/05 00:10:51;;;;;;;35.85;16.10;;;4.00;99.90;;;;;;5014865;28;20112;-66
2020/12/05 00:13:37;;;;;;;36.25;16.20;;;3.90;99.90;;;;;;5013211;28;20041;-66
2020/12/05 00:16:23;;;;;;;38.38;16.40;;;3.70;99.90;;;;;;5014579;28;20034;-66
2020/12/05 00:19:11;;;;;;;33.70;15.85;;;3.80;99.90;;;;;;5013110;28;20100;-66
2020/12/05 00:21:57;;;;;;;35.28;16.42;;;3.90;99.90;;;;;;5014065;28;20041;-66
2020/12/05 00:24:44;;;;;;;39.83;16.98;;;3.90;99.90;;;;;;5014425;28;20042;-66
2020/12/05 00:27:30;;;;;;;37.33;16.35;;;3.70;99.90;;;;;;5013743;28;20501;-67
2020/12/05 00:30:17;;;;;;;38.03;17.45;;;3.80;99.90;;;;;;5013360;28;20034;-66
2020/12/05 00:33:03;;;;;;;41.33;17.58;;;3.80;99.90;;;;;;4998722;28;20058;-67
2020/12/05 00:35:49;;;;;;;45.17;19.08;;;3.90;99.90;;;;;;5013599;28;20104;-66
2020/12/05 00:38:37;;;;;;;44.67;19.58;;;3.80;99.90;;;;;;5013291;28;20030;-67
2020/12/05 00:41:23;;;;;;;38.92;18.27;;;3.90;99.90;;;;;;4999838;28;20034;-67
2020/12/05 00:44:09;;;;;;;43.78;17.50;;;4.10;99.90;;;;;;5013778;28;20045;-67
2020/12/05 00:46:55;;;;;;;43.10;17.73;;;4.10;99.90;;;;;;5013397;28;20684;-67
2020/12/05 00:49:41;;;;;;;41.25;17.60;;;4.00;99.90;;;;;;4999433;28;20126;-67
2020/12/05 00:52:27;;;;;;;40.35;17.98;;;4.00;99.90;;;;;;5013369;28;20038;-66
2020/12/05 00:55:13;;;;;;;45.15;19.35;;;4.00;99.90;;;;;;5015201;28;20033;-67
2020/12/05 00:57:59;;;;;;;43.75;17.40;;;3.90;99.90;;;;;;4998788;28;20061;-67
2020/12/05 01:00:46;;;;;;;48.58;18.63;;;3.70;99.90;;;;;;5013910;28;20395;-67
2020/12/05 01:03:32;;;;;;;38.70;18.25;;;3.70;99.90;;;;;;5012782;28;20184;-66
2020/12/05 01:06:18;;;;;;;43.47;18.30;;;3.90;99.90;;;;;;5013204;28;20065;-66
2020/12/05 01:09:04;;;;;;;45.95;18.48;;;3.90;99.90;;;;;;5013126;28;20042;-66
2020/12/05 01:11:50;;;;;;;49.45;20.05;;;3.60;99.90;;;;;;5012478;28;20069;-66
2020/12/05 01:14:36;;;;;;;51.20;21.38;;;3.70;99.90;;;;;;5013603;28;20069;-66
2020/12/05 01:17:25;;;;;;;44.92;19.95;;;3.60;99.90;;;;;;5012882;28;20030;-67
2020/12/05 01:20:11;;;;;;;52.95;19.10;;;3.70;99.90;;;;;;4998579;28;20116;-67
2020/12/05 01:22:57;;;;;;;44.25;19.08;;;3.60;99.90;;;;;;5013052;28;20107;-67
2020/12/05 01:25:43;;;;;;;43.50;19.10;;;3.70;99.90;;;;;;5013402;28;20048;-66
2020/12/05 01:28:30;;;;;;;42.80;18.65;;;3.70;99.90;;;;;;5012896;28;20552;-66
2020/12/05 01:31:16;;;;;;;46.65;19.38;;;3.70;99.90;;;;;;5012531;28;20036;-66
2020/12/05 01:34:02;;;;;;;43.85;18.02;;;3.70;99.90;;;;;;4998688;28;20125;-66
2020/12/05 01:36:48;;;;;;;45.30;19.83;;;3.50;99.90;;;;;;5013186;28;20053;-66
2020/12/05 01:39:35;;;;;;;48.97;19.83;;;3.30;99.90;;;;;;5013275;28;20038;-66
2020/12/05 01:42:21;;;;;;;48.08;18.98;;;3.40;99.90;;;;;;4999312;28;20438;-66
2020/12/05 01:45:07;;;;;;;47.40;21.08;;;3.40;99.90;;;;;;5011744;28;20112;-66
2020/12/05 01:47:54;;;;;;;43.75;20.10;;;3.30;99.90;;;;;;4997552;28;20042;-66
2020/12/05 01:50:40;;;;;;;50.22;20.95;;;3.30;99.90;;;;;;5010780;28;20064;-66
2020/12/05 01:53:26;;;;;;;54.58;20.40;;;3.20;99.90;;;;;;4997914;28;20045;-66
2020/12/05 01:56:13;;;;;;;51.38;21.73;;;3.40;99.90;;;;;;4998382;28;20136;-66
2020/12/05 01:58:59;;;;;;;57.30;21.65;;;3.30;99.90;;;;;;4998201;28;20073;-66
2020/12/05 02:01:46;;;;;;;55.17;22.95;;;3.30;99.90;;;;;;4996967;28;20045;-66
2020/12/05 02:05:12;;;;;;;50.67;21.23;;;3.30;99.90;;;;;;4983162;28;20152;-66
2020/12/05 02:08:09;;;;;;;47.47;19.17;;;3.30;99.90;;;;;;4979732;28;20066;-66
2020/12/05 02:10:57;;;;;;;53.35;22.65;;;3.20;99.90;;;;;;4997382;28;20137;-66
2020/12/05 02:13:47;;;;;;;76.45;34.92;;;3.10;99.90;;;;;;4997461;28;20172;-66
2020/12/05 02:16:34;;;;;;;53.55;21.92;;;3.20;99.90;;;;;;4997467;28;20038;-66
2020/12/05 02:19:22;;;;;;;51.47;20.63;;;3.20;99.90;;;;;;4998458;28;20507;-66
2020/12/05 02:22:13;;;;;;;51.28;20.73;;;3.10;99.90;;;;;;5013008;28;20037;-66
2020/12/05 02:25:00;;;;;;;47.70;20.58;;;2.90;99.90;;;;;;5011441;28;20560;-65
2020/12/05 02:27:46;;;;;;;42.35;18.33;;;2.80;99.90;;;;;;4997217;28;20133;-65
2020/12/05 02:30:33;;;;;;;43.60;18.58;;;2.90;99.90;;;;;;5011875;28;20041;-65
2020/12/05 02:33:20;;;;;;;53.30;18.77;;;2.80;99.90;;;;;;5012005;28;20054;-65
2020/12/05 02:36:06;;;;;;;48.55;19.17;;;2.80;99.90;;;;;;5011212;28;20038;-65
2020/12/05 02:39:11;;;;;;;45.88;18.92;;;2.80;99.90;;;;;;5010777;28;20038;-65
2020/12/05 02:41:57;;;;;;;45.70;19.55;;;2.80;99.90;;;;;;4997741;28;20398;-65
2020/12/05 02:44:52;;;;;;;50.47;21.80;;;2.70;99.90;;;;;;4997903;28;20406;-65
2020/12/05 02:47:38;;;;;;;50.25;21.27;;;2.70;99.90;;;;;;5010839;28;20406;-65
2020/12/05 02:50:24;;;;;;;51.67;19.90;;;2.70;99.90;;;;;;5012221;28;20167;-65
2020/12/05 02:53:10;;;;;;;54.08;20.10;;;2.80;99.90;;;;;;4997336;28;20068;-65
2020/12/05 02:55:56;;;;;;;45.33;21.48;;;2.80;99.90;;;;;;5010679;28;20034;-65
2020/12/05 02:58:47;;;;;;;53.42;19.90;;;2.90;99.90;;;;;;5012086;28;20120;-65
2020/12/05 03:01:33;;;;;;;46.97;18.75;;;2.80;99.90;;;;;;5012847;28;20034;-65
2020/12/05 03:04:19;;;;;;;49.75;20.55;;;2.80;99.90;;;;;;5012524;28;20037;-65
2020/12/05 03:07:05;;;;;;;47.60;19.95;;;2.80;99.90;;;;;;5010224;28;20061;-66
2020/12/05 03:09:51;;;;;;;53.28;20.75;;;2.90;99.90;;;;;;5010736;28;20092;-65
2020/12/05 03:12:37;;;;;;;46.97;19.60;;;3.00;99.90;;;;;;4996526;28;20042;-65
2020/12/05 03:15:23;;;;;;;49.17;20.25;;;2.90;99.90;;;;;;4997620;28;20042;-65
2020/12/05 03:18:09;;;;;;;53.75;21.75;;;3.00;99.90;;;;;;4996508;28;20030;-65
2020/12/05 03:20:55;;;;;;;49.20;20.02;;;3.00;99.90;;;;;;5011559;28;20497;-65
2020/12/05 03:23:45;;;;;;;50.45;19.25;;;2.80;99.90;;;;;;5012217;28;20044;-65
2020/12/05 03:26:31;;;;;;;47.45;20.20;;;2.90;99.90;;;;;;5010277;28;20056;-65
2020/12/05 03:29:17;;;;;;;52.40;19.42;;;2.90;99.90;;;;;;5010410;28;20038;-65
2020/12/05 03:32:16;;;;;;;52.67;21.20;;;2.80;99.90;;;;;;5010857;28;20034;-65
2020/12/05 03:35:02;;;;;;;51.15;21.65;;;2.80;99.90;;;;;;5010429;28;20046;-65
2020/12/05 03:37:48;;;;;;;54.22;21.15;;;2.70;99.90;;;;;;5009488;28;20451;-65
2020/12/05 03:40:37;;;;;;;47.72;19.75;;;2.80;99.90;;;;;;5010900;28;20041;-65
2020/12/05 03:43:23;;;;;;;53.83;20.60;;;2.80;99.90;;;;;;5010997;28;20045;-65
2020/12/05 03:46:09;;;;;;;52.25;20.83;;;2.80;99.90;;;;;;5009481;28;20038;-65
2020/12/05 03:48:55;;;;;;;56.75;22.08;;;2.80;99.90;;;;;;5010785;28;20108;-65
2020/12/05 03:51:41;;;;;;;61.15;20.00;;;2.70;99.90;;;;;;5010568;28;20038;-65
2020/12/05 03:54:28;;;;;;;50.95;21.13;;;2.60;99.90;;;;;;5011384;28;20060;-65
2020/12/05 03:57:14;;;;;;;61.50;20.77;;;2.60;99.90;;;;;;5011395;28;20053;-65
2020/12/05 04:00:00;;;;;;;45.50;20.15;;;2.60;99.90;;;;;;4996176;28;20045;-65
2020/12/05 04:02:46;;;;;;;54.72;22.17;;;2.50;99.90;;;;;;5010379;28;20038;-65
2020/12/05 04:05:32;;;;;;;57.08;21.95;;;2.50;99.90;;;;;;5010880;28;20037;-65
2020/12/05 04:08:18;;;;;;;54.75;21.92;;;2.60;99.90;;;;;;5009795;28;20120;-65
2020/12/05 04:11:04;;;;;;;58.10;21.10;;;2.50;99.90;;;;;;5010137;28;20499;-65
2020/12/05 04:13:50;;;;;;;60.42;21.85;;;2.50;99.90;;;;;;5012186;28;20477;-65
2020/12/05 04:16:38;;;;;;;55.92;20.40;;;2.50;99.90;;;;;;5014483;28;20177;-65
2020/12/05 04:19:24;;;;;;;56.03;21.27;;;2.50;99.90;;;;;;4999150;28;20172;-65
2020/12/05 04:22:10;;;;;;;60.47;22.48;;;2.50;99.90;;;;;;5014203;28;20099;-65
2020/12/05 04:24:56;;;;;;;56.95;21.60;;;2.60;99.90;;;;;;5014140;28;20038;-65
2020/12/05 04:27:42;;;;;;;65.60;23.65;;;2.60;99.90;;;;;;5014164;28;20046;-65
2020/12/05 04:30:28;;;;;;;58.72;21.30;;;2.60;99.90;;;;;;5013108;28;20119;-65
2020/12/05 04:33:14;;;;;;;69.05;23.42;;;2.60;99.90;;;;;;5013837;28;20066;-65
2020/12/05 04:36:00;;;;;;;53.90;21.73;;;2.70;99.90;;;;;;4999230;28;20113;-65
2020/12/05 04:38:46;;;;;;;57.13;21.73;;;2.70;99.90;;;;;;5014959;28;20049;-65
2020/12/05 04:41:32;;;;;;;48.92;22.00;;;2.70;99.90;;;;;;5013947;28;20030;-65
2020/12/05 04:44:19;;;;;;;53.53;22.45;;;2.90;99.90;;;;;;5013945;28;20042;-65
2020/12/05 04:47:07;;;;;;;55.72;20.95;;;2.90;99.90;;;;;;4999182;28;20048;-65
2020/12/05 04:50:00;;;;;;;52.95;21.55;;;2.90;99.90;;;;;;4999639;28;20088;-65
2020/12/05 04:52:49;;;;;;;63.90;22.92;;;2.90;99.90;;;;;;4999792;28;20114;-65
2020/12/05 04:55:38;;;;;;;54.17;21.50;;;2.80;99.90;;;;;;5014117;28;20473;-65
2020/12/05 04:58:24;;;;;;;56.30;22.13;;;2.80;99.90;;;;;;5000841;28;20225;-65
2020/12/05 05:01:17;;;;;;;48.95;20.88;;;2.80;99.90;;;;;;5013412;28;20514;-65
2020/12/05 05:04:05;;;;;;;61.35;22.80;;;2.70;99.90;;;;;;4999363;28;20096;-65
2020/12/05 05:07:02;;;;;;;61.00;22.45;;;2.70;99.90;;;;;;4998043;28;20041;-65
2020/12/05 05:10:03;;;;;;;53.00;22.67;;;2.60;99.90;;;;;;4999244;28;20111;-65
2020/12/05 05:12:50;;;;;;;53.85;21.88;;;2.70;99.90;;;;;;5000770;28;20037;-65
2020/12/05 05:15:36;;;;;;;58.72;24.45;;;2.80;99.90;;;;;;5013859;28;20045;-65
2020/12/05 05:18:24;;;;;;;58.20;23.50;;;2.70;99.90;;;;;;4999210;28;20081;-65
2020/12/05 05:21:30;;;;;;;58.55;22.55;;;2.80;99.90;;;;;;5013416;28;20471;-65
2020/12/05 05:24:19;;;;;;;59.85;22.17;;;2.90;99.90;;;;;;5000427;28;20038;-65
2020/12/05 05:27:08;;;;;;;55.63;22.52;;;2.90;99.90;;;;;;5013731;28;20052;-68
2020/12/05 05:30:11;;;;;;;65.22;23.02;;;2.90;99.90;;;;;;5032894;28;20119;-67
2020/12/05 05:33:07;;;;;;;61.45;23.40;;;2.90;99.90;;;;;;5032426;28;20061;-64
2020/12/05 05:35:53;;;;;;;59.13;22.35;;;2.90;99.90;;;;;;5031481;28;20079;-65
2020/12/05 05:38:39;;;;;;;54.53;21.35;;;3.00;99.90;;;;;;5032494;28;20476;-65
2020/12/05 05:41:26;;;;;;;57.33;21.83;;;3.00;99.90;;;;;;5018489;28;20091;-66
2020/12/05 05:44:19;;;;;;;59.42;21.60;;;3.00;99.90;;;;;;5014676;28;20042;-67
2020/12/05 05:47:07;;;;;;;60.60;23.25;;;3.00;99.90;;;;;;5032407;28;20084;-67
2020/12/05 05:49:53;;;;;;;56.30;24.30;;;3.10;99.90;;;;;;5017735;28;20037;-67
2020/12/05 05:52:40;;;;;;;58.97;23.38;;;3.00;99.90;;;;;;5031714;28;20497;-67
2020/12/05 05:55:56;;;;;;;58.03;21.85;;;3.10;99.90;;;;;;5033371;28;20067;-66
2020/12/05 05:58:42;;;;;;;54.20;21.40;;;3.10;99.90;;;;;;5027791;28;20466;-64
2020/12/05 06:01:35;;;;;;;57.08;21.77;;;3.10;99.90;;;;;;5018012;28;20040;-71
2020/12/05 06:04:28;;;;;;;56.75;20.92;;;3.20;99.90;;;;;;5018404;28;20025;-68
2020/12/05 06:07:24;;;;;;;58.83;21.95;;;3.20;99.90;;;;;;5032937;28;20037;-67
2020/12/05 06:10:12;;;;;;;58.47;21.58;;;3.10;99.90;;;;;;5018894;28;20026;-67
2020/12/05 06:12:58;;;;;;;54.63;20.73;;;3.10;99.90;;;;;;5018799;28;20037;-66
2020/12/05 06:15:46;;;;;;;56.60;20.13;;;3.10;99.90;;;;;;5004105;28;20391;-66
2020/12/05 06:18:32;;;;;;;54.42;21.90;;;3.20;99.90;;;;;;5032357;28;20103;-66
2020/12/05 06:21:18;;;;;;;65.35;23.77;;;3.20;99.90;;;;;;5018652;28;20026;-65
2020/12/05 06:24:05;;;;;;;54.03;21.05;;;3.20;99.90;;;;;;5031664;28;20505;-66
2020/12/05 06:26:54;;;;;;;55.65;21.40;;;3.20;99.90;;;;;;5016976;28;20033;-62
2020/12/05 06:29:41;;;;;;;53.83;20.63;;;3.20;99.90;;;;;;5016229;28;20037;-63
2020/12/05 06:32:56;;;;;;;53.92;22.40;;;3.20;99.90;;;;;;5017903;28;20490;-63
2020/12/05 06:35:42;;;;;;;50.78;20.33;;;3.20;99.90;;;;;;5014659;28;20459;-63
2020/12/05 06:38:28;;;;;;;60.10;22.13;;;3.30;99.90;;;;;;5016499;28;20474;-62
2020/12/05 06:41:35;;;;;;;52.80;19.80;;;3.20;99.90;;;;;;5030892;28;20045;-63
2020/12/05 06:44:31;;;;;;;54.70;21.30;;;3.30;99.90;;;;;;5016229;28;20040;-63
2020/12/05 06:47:25;;;;;;;59.30;21.08;;;3.40;99.90;;;;;;5031184;28;20096;-63
2020/12/05 06:50:31;;;;;;;42.50;18.15;;;3.40;99.90;;;;;;5003603;28;20037;-64
2020/12/05 06:53:20;;;;;;;46.55;18.05;;;3.40;99.90;;;;;;4999821;28;20458;-64
2020/12/05 06:56:16;;;;;;;45.45;17.92;;;3.40;99.90;;;;;;5010628;28;20034;-64
2020/12/05 06:59:02;;;;;;;50.00;17.95;;;3.50;99.90;;;;;;5027143;28;20044;-64
2020/12/05 07:01:48;;;;;;;43.53;17.15;;;3.70;99.90;;;;;;5014242;28;20609;-64
2020/12/05 07:04:34;;;;;;;40.13;16.85;;;3.60;99.90;;;;;;5031821;28;20041;-64
2020/12/05 07:07:30;;;;;;;46.08;17.30;;;3.60;99.90;;;;;;5031428;28;20120;-64
2020/12/05 07:10:18;;;;;;;40.60;17.35;;;3.50;99.90;;;;;;5031262;28;20426;-65
2020/12/05 07:13:17;;;;;;;36.60;15.68;;;3.50;99.90;;;;;;5030041;28;20033;-64
2020/12/05 07:16:24;;;;;;;42.42;15.02;;;3.40;99.90;;;;;;5017329;28;20025;-64
2020/12/05 07:19:10;;;;;;;39.90;15.73;;;3.40;99.90;;;;;;5032399;28;20445;-64
2020/12/05 07:21:56;;;;;;;39.60;15.38;;;3.40;99.90;;;;;;5015707;28;20087;-64
2020/12/05 07:24:44;;;;;;;31.95;14.93;;;3.50;99.90;;;;;;5031313;28;20116;-62
2020/12/05 07:27:30;;;;;;;39.10;15.52;;;3.50;99.90;;;;;;5031226;28;20379;-62
2020/12/05 07:30:16;;;;;;;34.95;14.45;;;3.50;99.90;;;;;;5030777;28;20039;-63
2020/12/05 07:33:07;;;;;;;37.30;14.95;;;3.50;99.90;;;;;;5031418;28;20132;-63
2020/12/05 07:36:05;;;;;;;35.53;14.70;;;3.50;99.90;;;;;;5031729;28;20041;-63
2020/12/05 07:38:51;;;;;;;28.75;13.05;;;3.50;99.90;;;;;;5016237;28;20406;-63
2020/12/05 07:41:37;;;;;;;33.95;13.02;;;3.60;99.90;;;;;;5030623;28;20042;-63
2020/12/05 07:44:23;;;;;;;26.55;12.32;;;3.70;99.90;;;;;;5030115;28;20195;-63
2020/12/05 07:47:19;;;;;;;33.35;13.82;;;3.60;99.90;;;;;;5030263;28;20087;-63
2020/12/05 07:50:10;;;;;;;25.60;12.32;;;3.50;99.90;;;;;;5034086;28;20048;-63
2020/12/05 07:52:56;;;;;;;32.50;13.00;;;3.50;99.90;;;;;;5033874;28;20034;-63
2020/12/05 07:55:42;;;;;;;27.42;12.15;;;3.50;99.90;;;;;;5034287;28;20367;-63
2020/12/05 07:58:28;;;;;;;27.38;11.52;;;3.50;99.90;;;;;;5034292;28;20103;-63
2020/12/05 08:01:57;;;;;;;26.98;10.50;;;3.60;99.90;;;;;;5034663;28;20115;-63
2020/12/05 08:04:54;;;;;;;22.20;10.70;;;3.60;99.90;;;;;;5033439;28;20037;-58
2020/12/05 08:07:42;;;;;;;21.60;11.25;;;3.60;99.90;;;;;;5034747;28;20056;-59
2020/12/05 08:10:34;;;;;;;20.05;9.25;;;3.70;99.90;;;;;;5019748;28;20036;-59
2020/12/05 08:13:29;;;;;;;20.73;9.77;;;3.70;99.90;;;;;;5019301;28;20037;-58
2020/12/05 08:16:17;;;;;;;77.82;33.72;;;3.80;99.90;;;;;;5034541;28;20046;-61
2020/12/05 08:19:03;;;;;;;20.40;9.50;;;4.10;99.90;;;;;;5019635;28;20030;-65
2020/12/05 08:21:51;;;;;;;17.10;8.15;;;4.00;99.90;;;;;;5019993;28;20445;-63
2020/12/05 08:24:49;;;;;;;15.45;7.22;;;4.00;99.90;;;;;;5018661;28;20493;-65
2020/12/05 08:27:37;;;;;;;14.35;6.03;;;3.90;99.90;;;;;;5033790;28;20556;-63
2020/12/05 08:30:23;;;;;;;10.52;5.28;;;4.00;99.90;;;;;;5031835;28;20033;-63
2020/12/05 08:33:11;;;;;;;16.05;6.03;;;4.10;99.90;;;;;;5017538;28;20068;-62
2020/12/05 08:35:57;;;;;;;11.77;5.18;;;4.20;99.90;;;;;;5017499;28;20033;-63
2020/12/05 08:38:44;;;;;;;11.50;5.00;;;4.30;99.90;;;;;;5034342;28;20095;-63
2020/12/05 08:41:48;;;;;;;11.07;5.28;;;4.30;99.90;;;;;;5018235;28;20034;-64
2020/12/05 08:44:34;;;;;;;10.40;5.00;;;4.10;99.90;;;;;;5033467;28;20037;-68
2020/12/05 08:47:20;;;;;;;11.48;5.97;;;4.10;99.90;;;;;;5019148;28;20029;-71
2020/12/05 08:50:06;;;;;;;11.10;6.00;;;4.00;99.90;;;;;;5034490;28;20093;-68
2020/12/05 08:52:58;;;;;;;12.02;6.72;;;4.00;99.90;;;;;;5018910;28;20073;-68
2020/12/05 08:55:47;;;;;;;11.93;5.40;;;4.00;99.90;;;;;;5020389;28;20548;-67
2020/12/05 08:58:47;;;;;;;7.95;4.75;;;4.10;99.90;;;;;;5034083;28;20136;-72
2020/12/05 09:01:43;;;;;;;10.90;5.45;;;4.20;99.90;;;;;;5033879;28;20033;-71
2020/12/05 09:04:32;;;;;;;9.30;5.50;;;4.30;99.90;;;;;;5033614;28;20046;-72
2020/12/05 09:07:18;;;;;;;9.38;4.80;;;4.40;99.90;;;;;;5018105;28;20034;-74
2020/12/05 09:10:16;;;;;;;8.30;5.15;;;4.30;99.90;;;;;;5031105;28;20561;-73
2020/12/05 09:13:06;;;;;;;8.02;4.38;;;4.40;99.90;;;;;;5011050;28;20050;-71
2020/12/05 09:16:01;;;;;;;9.63;4.57;;;4.40;99.90;;;;;;5012740;28;20041;-65
2020/12/05 09:18:50;;;;;;;8.95;4.20;;;4.30;99.90;;;;;;5020362;28;20449;-65
2020/12/05 09:21:36;;;;;;;7.13;4.10;;;4.30;99.90;;;;;;5032233;28;20494;-65
2020/12/05 09:24:23;;;;;;;9.55;4.72;;;4.30;99.90;;;;;;5031578;28;20025;-65
2020/12/05 09:27:09;;;;;;;6.63;3.50;;;4.40;99.90;;;;;;5017259;28;20029;-65
2020/12/05 09:29:55;;;;;;;7.53;4.35;;;4.40;99.90;;;;;;5018029;28;20037;-66
2020/12/05 09:32:45;;;;;;;8.15;5.20;;;4.50;99.90;;;;;;5031784;28;20523;-66
2020/12/05 09:35:32;;;;;;;6.68;3.33;;;4.60;99.90;;;;;;4992600;28;20049;-65
2020/12/05 09:38:18;;;;;;;5.65;3.25;;;4.80;99.90;;;;;;5027462;28;20100;-64
2020/12/05 09:41:04;;;;;;;5.57;3.20;;;4.80;99.90;;;;;;5024420;28;20069;-65
2020/12/05 09:43:50;;;;;;;5.07;2.42;;;5.00;99.90;;;;;;5013281;28;20100;-69
2020/12/05 09:46:36;;;;;;;4.03;2.38;;;5.20;99.90;;;;;;5010602;28;20030;-67
2020/12/05 09:49:22;;;;;;;6.68;2.65;;;5.30;99.90;;;;;;5010190;28;20068;-67
2020/12/05 09:52:08;;;;;;;4.85;2.90;;;5.30;99.90;;;;;;5012527;28;20045;-67
2020/12/05 09:54:54;;;;;;;5.22;2.20;;;5.40;99.90;;;;;;5012258;28;20127;-67
2020/12/05 09:57:41;;;;;;;4.82;1.80;;;5.40;99.90;;;;;;4997194;28;20036;-67
2020/12/05 10:00:27;;;;;;;4.05;2.35;;;5.40;99.90;;;;;;5011830;28;20479;-67
2020/12/05 10:03:14;;;;;;;6.60;3.40;;;5.40;99.90;;;;;;4997442;28;20037;-67
2020/12/05 10:06:01;;;;;;;6.43;3.13;;;5.40;99.90;;;;;;5012068;28;20034;-68
2020/12/05 10:08:47;;;;;;;5.85;2.80;;;5.40;99.90;;;;;;5011550;28;20124;-68
2020/12/05 10:11:33;;;;;;;5.30;2.75;;;5.40;99.90;;;;;;5011732;28;20038;-67
2020/12/05 10:14:19;;;;;;;6.22;2.88;;;5.20;99.90;;;;;;5011396;28;20487;-67
2020/12/05 10:17:05;;;;;;;5.38;3.13;;;5.20;99.90;;;;;;5011517;28;20115;-67
2020/12/05 10:19:52;;;;;;;5.68;3.05;;;5.10;99.90;;;;;;4997271;28;20042;-67
2020/12/05 10:22:38;;;;;;;5.03;3.25;;;5.00;99.90;;;;;;5011970;28;20034;-68
2020/12/05 10:25:24;;;;;;;4.72;2.88;;;5.00;99.90;;;;;;5011852;28;20046;-67
2020/12/05 10:28:10;;;;;;;6.03;3.08;;;5.10;99.90;;;;;;5011465;28;20029;-67
2020/12/05 10:30:56;;;;;;;4.28;2.80;;;5.00;99.90;;;;;;4995549;28;20038;-68
2020/12/05 10:33:42;;;;;;;5.75;3.13;;;5.10;99.90;;;;;;5010398;28;20054;-67
2020/12/05 10:36:28;;;;;;;5.68;2.70;;;5.10;99.90;;;;;;5012277;28;20038;-67
2020/12/05 10:39:15;;;;;;;4.60;2.60;;;5.00;99.90;;;;;;5011327;28;20084;-67
2020/12/05 10:42:01;;;;;;;5.07;2.75;;;5.00;99.90;;;;;;4997701;28;20038;-67
2020/12/05 10:44:48;;;;;;;3.90;2.20;;;5.10;99.90;;;;;;5011724;28;20046;-69
2020/12/05 10:47:34;;;;;;;4.30;2.45;;;5.10;99.90;;;;;;5011980;28;20030;-67
2020/12/05 10:50:20;;;;;;;4.00;2.20;;;5.20;99.90;;;;;;4996795;28;20100;-67
2020/12/05 10:53:06;;;;;;;4.50;2.78;;;5.20;99.90;;;;;;4996127;28;20042;-67
2020/12/05 10:55:53;;;;;;;4.35;2.40;;;5.40;99.90;;;;;;4997133;28;20077;-68
2020/12/05 10:58:39;;;;;;;5.43;2.55;;;5.20;99.90;;;;;;5010203;28;20056;-67
2020/12/05 11:01:25;;;;;;;3.25;1.75;;;5.30;99.90;;;;;;5010928;28;20077;-60
2020/12/05 11:04:11;;;;;;;3.95;2.33;;;5.40;99.90;;;;;;5011972;28;20092;-68
2020/12/05 11:06:58;;;;;;;4.07;2.40;;;5.30;99.90;;;;;;5011009;28;20113;-70
2020/12/05 11:09:44;;;;;;;5.00;2.42;;;5.30;99.90;;;;;;5015107;28;20080;-72
2020/12/05 11:12:30;;;;;;;6.90;2.75;;;5.20;99.90;;;;;;5017564;28;20081;-65
2020/12/05 11:15:16;;;;;;;8.75;2.65;;;5.20;99.90;;;;;;5016639;28;20525;-67
2020/12/05 11:18:02;;;;;;;8.73;2.75;;;5.30;99.90;;;;;;5030529;28;20393;-70
2020/12/05 11:20:48;;;;;;;6.15;3.22;;;5.50;99.90;;;;;;5032050;28;20100;-68
2020/12/05 11:23:35;;;;;;;5.78;2.35;;;5.40;99.90;;;;;;5034345;28;20037;-66
2020/12/05 11:26:22;;;;;;;6.88;2.42;;;5.50;99.90;;;;;;5035391;28;20502;-67
2020/12/05 11:29:08;;;;;;;3.90;2.08;;;5.50;99.90;;;;;;5020707;28;20067;-67
2020/12/05 11:31:55;;;;;;;4.50;2.20;;;5.60;99.90;;;;;;5034668;28;20053;-67
2020/12/05 11:34:41;;;;;;;7.88;2.97;;;5.70;99.90;;;;;;5033768;28;20053;-66
2020/12/05 11:37:27;;;;;;;3.75;2.17;;;5.70;99.90;;;;;;5034571;28;20072;-64
2020/12/05 11:40:13;;;;;;;4.22;2.30;;;5.70;99.90;;;;;;5032196;28;20060;-64
2020/12/05 11:42:59;;;;;;;4.45;2.20;;;5.80;99.90;;;;;;5019971;28;20036;-58
2020/12/05 11:45:46;;;;;;;4.97;2.70;;;5.80;99.90;;;;;;5034725;28;20044;-57
2020/12/05 11:48:32;;;;;;;4.65;2.42;;;5.80;99.90;;;;;;5034993;28;20068;-58
2020/12/05 11:51:26;;;;;;;3.80;2.10;;;5.80;99.90;;;;;;5035745;28;20048;-58
2020/12/05 11:54:13;;;;;;;5.10;2.60;;;5.90;99.90;;;;;;5034282;28;20037;-58
2020/12/05 11:56:59;;;;;;;4.03;2.50;;;5.70;99.90;;;;;;5034218;28;20402;-57
2020/12/05 11:59:45;;;;;;;4.65;2.65;;;5.70;99.90;;;;;;5034329;28;20030;-57
2020/12/05 12:02:31;;;;;;;3.83;2.10;;;5.60;99.90;;;;;;5032919;28;20128;-54
2020/12/05 12:05:17;;;;;;;6.15;2.85;;;5.70;99.90;;;;;;5034749;28;20095;-57
2020/12/05 12:08:03;;;;;;;5.40;2.72;;;5.90;99.90;;;;;;5035345;28;20063;-54
2020/12/05 12:10:49;;;;;;;4.10;2.30;;;6.10;99.90;;;;;;5035317;28;20087;-57
2020/12/05 12:13:35;;;;;;;5.07;2.42;;;5.80;99.90;;;;;;5033552;28;20052;-56
2020/12/05 12:16:21;;;;;;;4.82;2.50;;;5.60;99.90;;;;;;5035148;28;20034;-56
2020/12/05 12:19:07;;;;;;;5.22;2.85;;;5.60;99.90;;;;;;5034297;28;20120;-55
2020/12/05 12:21:53;;;;;;;4.78;2.90;;;5.70;99.90;;;;;;5035402;28;20061;-73
2020/12/05 12:24:39;;;;;;;4.65;2.70;;;5.70;99.90;;;;;;5020208;28;20049;-72
2020/12/05 12:27:25;;;;;;;4.50;2.92;;;5.60;99.90;;;;;;5032590;28;20042;-72
2020/12/05 12:30:11;;;;;;;5.93;3.05;;;5.70;99.90;;;;;;5034110;28;20034;-71
2020/12/05 12:32:58;;;;;;;4.95;3.05;;;5.50;99.90;;;;;;5018288;28;20087;-68
2020/12/05 12:35:45;;;;;;;5.22;2.95;;;5.50;99.90;;;;;;4999502;28;20494;-68
2020/12/05 12:38:31;;;;;;;5.30;2.97;;;5.60;99.90;;;;;;4997129;28;20045;-68
2020/12/05 12:41:19;;;;;;;7.78;3.00;;;5.80;99.90;;;;;;5014329;28;20622;-67
2020/12/05 12:44:05;;;;;;;6.60;3.35;;;5.90;99.90;;;;;;4999828;28;20475;-68
2020/12/05 12:47:08;;;;;;;7.35;3.10;;;5.80;99.90;;;;;;5013245;28;20056;-68
2020/12/05 12:49:54;;;;;;;6.88;3.50;;;5.60;99.90;;;;;;5013780;28;20042;-68
2020/12/05 12:52:40;;;;;;;6.20;3.10;;;5.80;99.90;;;;;;5012826;28;20034;-68
2020/12/05 12:55:26;;;;;;;8.00;3.70;;;5.60;99.90;;;;;;5013511;28;20042;-68
2020/12/05 12:58:23;;;;;;;7.07;4.47;;;5.50;99.90;;;;;;5013583;28;20041;-69
2020/12/05 13:01:09;;;;;;;7.40;3.70;;;5.50;99.90;;;;;;5013956;28;20046;-69
2020/12/05 13:03:55;;;;;;;7.78;4.13;;;5.50;99.90;;;;;;4999274;28;20076;-69
2020/12/05 13:06:41;;;;;;;7.63;4.45;;;5.50;99.90;;;;;;5013825;28;20121;-69
2020/12/05 13:09:28;;;;;;;11.23;5.43;;;5.50;99.90;;;;;;5012232;28;20439;-69
2020/12/05 13:12:14;;;;;;;9.20;4.72;;;5.50;99.90;;;;;;5013257;28;20072;-69
2020/12/05 13:15:00;;;;;;;6.28;3.95;;;5.80;99.90;;;;;;5015024;28;20033;-68
2020/12/05 13:17:46;;;;;;;9.10;3.40;;;5.80;99.90;;;;;;5000027;28;20046;-68
2020/12/05 13:20:33;;;;;;;5.90;3.00;;;5.80;99.90;;;;;;5014647;28;20395;-69
2020/12/05 13:23:19;;;;;;;6.95;3.40;;;5.70;99.90;;;;;;5012289;28;20041;-68
2020/12/05 13:26:05;;;;;;;9.02;3.90;;;5.80;99.90;;;;;;5012365;28;20143;-68
2020/12/05 13:28:53;;;;;;;6.75;2.78;;;5.90;99.90;;;;;;4997652;28;20503;-68
2020/12/05 13:31:39;;;;;;;5.50;2.72;;;5.90;99.90;;;;;;5011540;28;20038;-69
2020/12/05 13:34:25;;;;;;;6.95;3.42;;;5.80;99.90;;;;;;5009880;28;20494;-67
2020/12/05 13:37:11;;;;;;;9.07;3.50;;;5.70;99.90;;;;;;5032003;28;20198;-67
2020/12/05 13:39:57;;;;;;;7.68;3.95;;;5.70;99.90;;;;;;5033157;28;20040;-66
2020/12/05 13:42:43;;;;;;;6.10;3.30;;;5.70;99.90;;;;;;5032839;28;20065;-66
2020/12/05 13:45:29;;;;;;;6.65;2.88;;;5.70;99.90;;;;;;5032262;28;20026;-66
2020/12/05 13:48:15;;;;;;;4.15;2.30;;;5.80;99.90;;;;;;5032156;28;20521;-66
2020/12/05 13:51:02;;;;;;;5.22;2.42;;;5.90;99.90;;;;;;5033058;28;20084;-65
2020/12/05 13:53:48;;;;;;;3.42;2.05;;;6.00;99.90;;;;;;5017702;28;20037;-65
2020/12/05 13:56:34;;;;;;;7.95;2.40;;;6.00;99.90;;;;;;5032572;28;20026;-70
2020/12/05 13:59:20;;;;;;;4.00;2.65;;;6.00;99.90;;;;;;5031400;28;20037;-67
2020/12/05 14:02:09;;;;;;;4.35;2.30;;;6.00;99.90;;;;;;5017726;28;20034;-67
2020/12/05 14:04:55;;;;;;;4.38;2.20;;;5.90;99.90;;;;;;5017327;28;20029;-67
2020/12/05 14:07:42;;;;;;;3.75;2.00;;;6.00;99.90;;;;;;5031771;28;20482;-68
2020/12/05 14:10:28;;;;;;;4.15;2.17;;;6.10;99.90;;;;;;5017641;28;20029;-67
2020/12/05 14:13:15;;;;;;;4.32;2.75;;;6.20;99.90;;;;;;5029138;28;20045;-67
2020/12/05 14:16:01;;;;;;;4.65;2.60;;;6.00;99.90;;;;;;5029959;28;20449;-67
2020/12/05 14:18:47;;;;;;;4.95;2.30;;;6.00;99.90;;;;;;5016610;28;20044;-66
2020/12/05 14:21:33;;;;;;;4.03;2.05;;;6.00;99.90;;;;;;5031885;28;20036;-66
2020/12/05 14:24:19;;;;;;;5.93;2.92;;;5.90;99.90;;;;;;5031208;28;20069;-67
2020/12/05 14:27:05;;;;;;;12.43;5.95;;;6.00;99.90;;;;;;5016592;28;20042;-68
2020/12/05 14:29:51;;;;;;;5.70;2.70;;;6.00;99.90;;;;;;5029461;28;20044;-68
2020/12/05 14:32:37;;;;;;;5.20;2.55;;;5.90;99.90;;;;;;5031406;28;20100;-68
2020/12/05 14:35:24;;;;;;;5.95;3.05;;;5.80;99.90;;;;;;5031359;28;20045;-68